createdAt,value
2018-04-22T00:02:23.291Z,97761.09
2018-04-22T00:04:53.032Z,97757.00
2018-04-22T00:07:22.650Z,97755.67
2018-04-22T00:09:52.980Z,97753.90
2018-04-22T00:12:23.114Z,97744.36
2018-04-22T00:14:52.814Z,97747.05
2018-04-22T00:17:23.301Z,97750.54
2018-04-22T00:19:52.987Z,97746.91
2018-04-22T00:22:22.445Z,97750.54
2018-04-22T00:24:52.151Z,97748.08
2018-04-22T00:27:21.896Z,97751.42
2018-04-22T00:29:52.238Z,97749.78
2018-04-22T00:32:21.793Z,97754.69
2018-04-22T00:34:53.016Z,97747.58
2018-04-22T00:37:22.659Z,97750.56
2018-04-22T00:39:52.438Z,97743.70
2018-04-22T00:42:22.238Z,97741.73
2018-04-22T00:44:51.954Z,97741.44
2018-04-22T00:47:21.452Z,97744.30
2018-04-22T00:49:51.105Z,97744.30
2018-04-22T00:52:20.804Z,97738.16
2018-04-22T00:54:50.587Z,97740.50
2018-04-22T00:57:20.115Z,97739.56
2018-04-22T00:59:49.930Z,97736.33
2018-04-22T01:02:19.524Z,97738.02
2018-04-22T01:04:49.177Z,97741.58
2018-04-22T01:07:18.949Z,97742.80
2018-04-22T01:09:48.869Z,97743.63
2018-04-22T01:12:18.456Z,97744.23
2018-04-22T01:14:48.184Z,97745.52
2018-04-22T01:17:28.318Z,97742.09
2018-04-22T01:20:03.385Z,97752.08
2018-04-22T01:22:36.535Z,97745.72
2018-04-22T01:25:06.592Z,97743.84
2018-04-22T01:27:36.397Z,97741.93
2018-04-22T01:30:05.920Z,97748.58
2018-04-22T01:32:35.879Z,97742.84
2018-04-22T01:35:06.210Z,97738.59
2018-04-22T01:37:35.772Z,97745.97
2018-04-22T01:40:05.743Z,97741.69
2018-04-22T01:42:36.137Z,97744.74
2018-04-22T01:45:06.435Z,97742.27
2018-04-22T01:47:36.130Z,97743.27
2018-04-22T01:50:05.704Z,97741.53
2018-04-22T01:52:35.455Z,97742.02
2018-04-22T01:55:05.154Z,97746.59
2018-04-22T01:57:34.770Z,97748.09
2018-04-22T02:00:04.539Z,97744.41
2018-04-22T02:02:34.434Z,97748.31
2018-04-22T02:05:04.797Z,97748.33
2018-04-22T02:07:35.459Z,97745.21
2018-04-22T02:10:05.828Z,97751.27
2018-04-22T02:12:35.468Z,97743.75
2018-04-22T02:15:05.126Z,97742.79
2018-04-22T02:17:35.754Z,97738.73
2018-04-22T02:20:05.303Z,97744.33
2018-04-22T02:22:35.578Z,97736.13
2018-04-22T02:25:05.271Z,97738.59
2018-04-22T02:27:35.050Z,97736.06
2018-04-22T02:30:05.005Z,97734.23
2018-04-22T02:32:35.377Z,97735.13
2018-04-22T02:35:05.175Z,97730.16
2018-04-22T02:37:34.780Z,97728.83
2018-04-22T02:40:05.156Z,97726.13
2018-04-22T02:42:34.721Z,97727.83
2018-04-22T02:45:04.289Z,97726.10
2018-04-22T02:47:34.255Z,97721.84
2018-04-22T02:50:04.018Z,97719.59
2018-04-22T02:52:33.690Z,97724.11
2018-04-22T02:55:03.302Z,97729.51
2018-04-22T02:57:33.051Z,97721.31
2018-04-22T03:00:02.970Z,97724.19
2018-04-22T03:02:32.470Z,97729.09
2018-04-22T03:05:03.819Z,97720.53
2018-04-22T03:07:33.377Z,97726.98
2018-04-22T03:10:02.905Z,97725.46
2018-04-22T03:12:32.658Z,97723.19
2018-04-22T03:15:02.225Z,97717.23
2018-04-22T03:17:31.833Z,97720.27
2018-04-22T03:20:01.469Z,97723.59
2018-04-22T03:22:30.934Z,97719.73
2018-04-22T03:25:00.455Z,97718.45
2018-04-22T03:27:30.131Z,97714.78
2018-04-22T03:30:00.515Z,97709.64
2018-04-22T03:32:31.624Z,97707.11
2018-04-22T03:35:01.243Z,97710.48
2018-04-22T03:37:30.729Z,97715.80
2018-04-22T03:40:00.289Z,97715.80
2018-04-22T03:42:29.776Z,97715.58
2018-04-22T03:44:59.473Z,97712.84
2018-04-22T03:47:29.892Z,97709.56
2018-04-22T03:50:00.197Z,97709.10
2018-04-22T03:52:29.884Z,97709.53
2018-04-22T03:54:59.431Z,97710.97
2018-04-22T03:57:28.943Z,97712.28
2018-04-22T03:59:58.571Z,97718.94
2018-04-22T04:02:28.080Z,97714.52
2018-04-22T04:04:57.669Z,97718.03
2018-04-22T04:07:27.378Z,97713.64
2018-04-22T04:09:56.972Z,97711.09
2018-04-22T04:12:26.700Z,97711.98
2018-04-22T04:14:56.261Z,97715.25
2018-04-22T04:17:25.742Z,97718.56
2018-04-22T04:20:13.152Z,97715.69
2018-04-22T04:22:47.425Z,97719.64
2018-04-22T04:28:25.771Z,97721.84
2018-04-22T04:30:55.723Z,97724.99
2018-04-22T04:33:25.222Z,97723.61
2018-04-22T04:35:54.737Z,97721.97
2018-04-22T04:38:24.977Z,97732.23
2018-04-22T04:40:59.900Z,97724.10
2018-04-22T04:43:29.712Z,97719.42
2018-04-22T04:45:59.424Z,97724.98
2018-04-22T04:48:28.985Z,97725.87
2018-04-22T04:50:58.505Z,97724.39
2018-04-22T04:53:28.149Z,97714.20
2018-04-22T04:55:57.648Z,97719.55
2018-04-22T04:58:28.891Z,97722.41
2018-04-22T05:00:58.465Z,97723.80
2018-04-22T05:03:27.988Z,97723.03
2018-04-22T05:05:57.813Z,97715.30
2018-04-22T05:08:27.313Z,97714.97
2018-04-22T05:10:57.681Z,97716.09
2018-04-22T05:13:28.009Z,97726.92
2018-04-22T05:15:58.292Z,97723.85
2018-04-22T05:18:28.309Z,97724.84
2018-04-22T05:20:57.830Z,97726.03
2018-04-22T05:23:27.711Z,97725.69
2018-04-22T05:25:58.222Z,97724.20
2018-04-22T05:28:28.704Z,97725.66
2018-04-22T05:30:58.594Z,97724.45
2018-04-22T05:33:29.175Z,97722.31
2018-04-22T05:35:59.261Z,97726.00
2018-04-22T05:38:29.355Z,97735.73
2018-04-22T05:41:01.558Z,97734.44
2018-04-22T05:43:31.366Z,97734.30
2018-04-22T05:46:01.177Z,97728.88
2018-04-22T05:48:30.994Z,97730.83
2018-04-22T05:51:02.349Z,97738.55
2018-04-22T05:53:32.008Z,97737.94
2018-04-22T05:56:02.069Z,97736.91
2018-04-22T05:58:31.601Z,97734.92
2018-04-22T06:01:01.963Z,97737.28
2018-04-22T06:03:31.598Z,97736.73
2018-04-22T06:06:01.955Z,97743.70
2018-04-22T06:08:31.689Z,97740.30
2018-04-22T06:11:01.568Z,97739.14
2018-04-22T06:13:31.380Z,97742.16
2018-04-22T06:16:01.706Z,97740.02
2018-04-22T06:18:32.466Z,97740.16
2018-04-22T06:21:02.398Z,97736.92
2018-04-22T06:23:32.753Z,97746.75
2018-04-22T06:26:02.410Z,97747.48
2018-04-22T06:28:32.614Z,97749.95
2018-04-22T06:31:04.717Z,97750.88
2018-04-22T06:33:35.665Z,97752.69
2018-04-22T06:36:05.741Z,97752.94
2018-04-22T06:38:35.437Z,97754.13
2018-04-22T06:41:05.180Z,97752.39
2018-04-22T06:43:34.697Z,97761.44
2018-04-22T06:46:05.163Z,97755.00
2018-04-22T06:48:34.771Z,97757.59
2018-04-22T06:51:04.410Z,97762.13
2018-04-22T06:53:34.053Z,97759.50
2018-04-22T06:56:05.055Z,97764.34
2018-04-22T06:58:34.783Z,97760.16
2018-04-22T07:01:04.392Z,97756.38
2018-04-22T07:03:34.101Z,97762.70
2018-04-22T07:06:03.824Z,97759.51
2018-04-22T07:08:33.430Z,97756.72
2018-04-22T07:11:02.983Z,97759.69
2018-04-22T07:13:32.913Z,97758.44
2018-04-22T07:16:02.370Z,97759.72
2018-04-22T07:18:33.419Z,97762.48
2018-04-22T07:21:03.913Z,97767.83
2018-04-22T07:23:33.666Z,97766.83
2018-04-22T07:26:04.244Z,97764.83
2018-04-22T07:28:34.087Z,97768.80
2018-04-22T07:31:03.668Z,97771.50
2018-04-22T07:33:33.639Z,97770.41
2018-04-22T07:36:03.552Z,97770.28
2018-04-22T07:38:33.094Z,97774.47
2018-04-22T07:41:02.925Z,97774.91
2018-04-22T07:43:32.693Z,97782.33
2018-04-22T07:46:03.246Z,97780.33
2018-04-22T07:48:32.990Z,97779.27
2018-04-22T07:51:02.828Z,97785.77
2018-04-22T07:53:33.572Z,97783.17
2018-04-22T07:56:03.179Z,97778.06
2018-04-22T07:58:32.666Z,97782.97
2018-04-22T08:01:02.483Z,97776.84
2018-04-22T08:03:32.049Z,97781.64
2018-04-22T08:06:01.773Z,97782.35
2018-04-22T08:08:31.354Z,97781.69
2018-04-22T08:11:01.268Z,97784.81
2018-04-22T08:13:30.858Z,97778.32
2018-04-22T08:16:01.520Z,97782.63
2018-04-22T08:18:31.270Z,97785.43
2018-04-22T08:21:01.190Z,97779.94
2018-04-22T08:23:31.078Z,97778.58
2018-04-22T08:26:00.814Z,97791.42
2018-04-22T08:28:30.527Z,97784.20
2018-04-22T08:31:00.670Z,97772.08
2018-04-22T08:33:30.948Z,97779.79
2018-04-22T08:36:01.406Z,97779.69
2018-04-22T08:38:31.843Z,97784.41
2018-04-22T08:41:02.436Z,97790.67
2018-04-22T08:43:32.166Z,97782.91
2018-04-22T08:46:01.851Z,97775.98
2018-04-22T08:48:31.580Z,97777.75
2018-04-22T08:51:01.685Z,97779.05
2018-04-22T08:53:31.562Z,97785.98
2018-04-22T08:56:01.299Z,97779.03
2018-04-22T08:58:31.250Z,97782.39
2018-04-22T09:01:00.908Z,97780.81
2018-04-22T09:03:30.726Z,97781.34
2018-04-22T09:06:00.440Z,97782.33
2018-04-22T09:08:30.367Z,97782.49
2018-04-22T09:11:00.156Z,97788.91
2018-04-22T09:13:30.053Z,97784.70
2018-04-22T09:16:00.937Z,97783.92
2018-04-22T09:18:30.480Z,97780.16
2018-04-22T09:21:00.162Z,97779.64
2018-04-22T09:23:30.130Z,97787.50
2018-04-22T09:25:59.787Z,97780.22
2018-04-22T09:28:30.870Z,97767.60
2018-04-22T09:31:01.252Z,97772.58
2018-04-22T09:33:31.260Z,97774.83
2018-04-22T09:36:01.039Z,97782.97
2018-04-22T09:38:31.484Z,97769.05
2018-04-22T09:41:02.529Z,97777.78
2018-04-22T09:43:35.569Z,97772.00
2018-04-22T09:46:05.858Z,97779.62
2018-04-22T09:48:35.452Z,97773.05
2018-04-22T09:51:05.077Z,97769.27
2018-04-22T09:53:34.899Z,97758.52
2018-04-22T09:56:04.610Z,97756.70
2018-04-22T09:58:34.339Z,97749.64
2018-04-22T10:01:03.869Z,97752.98
2018-04-22T10:03:37.277Z,97750.88
2018-04-22T10:06:07.641Z,97758.48
2018-04-22T10:08:37.889Z,97748.80
2018-04-22T10:11:07.600Z,97751.47
2018-04-22T10:13:37.108Z,97750.69
2018-04-22T10:16:06.861Z,97745.41
2018-04-22T10:18:36.353Z,97750.32
2018-04-22T10:21:06.804Z,97743.42
2018-04-22T10:23:36.464Z,97743.13
2018-04-22T10:26:06.844Z,97748.41
2018-04-22T10:28:36.499Z,97739.58
2018-04-22T10:31:06.108Z,97736.45
2018-04-22T10:33:35.771Z,97732.95
2018-04-22T10:36:05.430Z,97737.77
2018-04-22T10:38:35.080Z,97728.98
2018-04-22T10:41:04.732Z,97728.95
2018-04-22T10:43:35.179Z,97731.00
2018-04-22T10:46:05.852Z,97725.08
2018-04-22T10:48:35.367Z,97717.81
2018-04-22T10:51:06.626Z,97717.22
2018-04-22T10:53:36.402Z,97719.44
2018-04-22T10:56:07.159Z,97714.50
2018-04-22T10:58:37.096Z,97715.27
2018-04-22T11:01:06.823Z,97715.31
2018-04-22T11:03:36.513Z,97709.00
2018-04-22T11:06:06.059Z,97711.14
2018-04-22T11:08:35.800Z,97705.48
2018-04-22T11:11:06.962Z,97704.27
2018-04-22T11:13:36.489Z,97697.05
2018-04-22T11:16:06.385Z,97691.74
2018-04-22T11:18:36.541Z,97692.77
2018-04-22T11:21:06.610Z,97686.45
2018-04-22T11:23:36.618Z,97684.87
2018-04-22T11:26:16.594Z,97677.58
2018-04-22T11:28:51.635Z,97680.92
2018-04-22T11:31:21.631Z,97690.54
2018-04-22T11:33:51.524Z,97676.75
2018-04-22T11:36:21.112Z,97680.44
2018-04-22T11:38:51.915Z,97684.30
2018-04-22T11:41:21.631Z,97680.17
2018-04-22T11:43:51.207Z,97679.61
2018-04-22T11:46:23.003Z,97680.14
2018-04-22T11:48:53.947Z,97669.97
2018-04-22T11:51:23.736Z,97672.61
2018-04-22T11:53:53.442Z,97671.02
2018-04-22T11:56:23.152Z,97668.78
2018-04-22T11:58:52.703Z,97668.42
2018-04-22T12:01:22.235Z,97669.39
2018-04-22T12:03:52.067Z,97670.48
2018-04-22T12:06:21.909Z,97664.94
2018-04-22T12:08:51.687Z,97659.02
2018-04-22T12:11:22.030Z,97660.46
2018-04-22T12:13:51.637Z,97661.36
2018-04-22T12:16:21.251Z,97655.88
2018-04-22T12:18:50.956Z,97657.66
2018-04-22T12:21:20.878Z,97655.64
2018-04-22T12:23:50.894Z,97664.23
2018-04-22T12:26:20.937Z,97661.67
2018-04-22T12:28:50.857Z,97651.03
2018-04-22T12:31:20.440Z,97657.38
2018-04-22T12:33:50.187Z,97660.39
2018-04-22T12:36:20.064Z,97654.29
2018-04-22T12:38:49.939Z,97647.23
2018-04-22T12:41:19.795Z,97644.50
2018-04-22T12:43:49.529Z,97645.20
2018-04-22T12:46:19.339Z,97643.47
2018-04-22T12:48:49.010Z,97642.29
2018-04-22T12:51:28.710Z,97642.52
2018-04-22T12:53:58.512Z,97636.36
2018-04-22T12:56:28.116Z,97635.64
2018-04-22T12:58:58.891Z,97643.91
2018-04-22T13:01:28.957Z,97639.45
2018-04-22T13:03:58.558Z,97634.95
2018-04-22T13:06:28.978Z,97635.91
2018-04-22T13:08:58.654Z,97629.81
2018-04-22T13:11:50.976Z,97632.02
2018-04-22T13:14:21.588Z,97632.20
2018-04-22T13:16:51.491Z,97624.34
2018-04-22T13:19:21.629Z,97625.58
2018-04-22T13:21:51.239Z,97626.44
2018-04-22T13:24:21.784Z,97619.91
2018-04-22T13:26:51.435Z,97616.97
2018-04-22T13:29:21.926Z,97616.28
2018-04-22T13:31:52.729Z,97613.53
2018-04-22T13:34:22.240Z,97611.84
2018-04-22T13:36:52.041Z,97606.95
2018-04-22T13:39:21.640Z,97611.15
2018-04-22T13:41:51.367Z,97613.17
2018-04-22T13:44:21.854Z,97611.85
2018-04-22T13:46:52.144Z,97602.33
2018-04-22T13:49:21.789Z,97601.30
2018-04-22T13:51:51.463Z,97598.50
2018-04-22T13:54:21.052Z,97600.28
2018-04-22T13:56:50.761Z,97598.36
2018-04-22T13:59:20.785Z,97594.43
2018-04-22T14:01:50.501Z,97589.24
2018-04-22T14:04:20.302Z,97585.37
2018-04-22T14:06:49.818Z,97585.31
2018-04-22T14:09:19.502Z,97586.20
2018-04-22T14:11:50.031Z,97584.13
2018-04-22T14:14:19.879Z,97578.84
2018-04-22T14:16:49.657Z,97578.55
2018-04-22T14:19:19.164Z,97577.34
2018-04-22T14:21:48.620Z,97580.22
2018-04-22T14:24:18.342Z,97569.48
2018-04-22T14:26:48.161Z,97571.32
2018-04-22T14:29:18.422Z,97566.14
2018-04-22T14:31:48.316Z,97575.59
2018-04-22T14:34:18.899Z,97569.03
2018-04-22T14:36:48.689Z,97574.14
2018-04-22T14:39:18.714Z,97572.51
2018-04-22T14:41:48.426Z,97568.04
2018-04-22T14:44:35.949Z,97562.94
2018-04-22T14:47:05.505Z,97552.95
2018-04-22T14:49:34.982Z,97557.90
2018-04-22T14:52:04.677Z,97558.17
2018-04-22T14:54:34.280Z,97552.39
2018-04-22T14:57:03.999Z,97557.98
2018-04-22T14:59:33.515Z,97550.34
2018-04-22T15:02:03.635Z,97551.72
2018-04-22T15:04:34.174Z,97554.40
2018-04-22T15:07:04.031Z,97550.62
2018-04-22T15:09:33.651Z,97553.72
2018-04-22T15:12:04.305Z,97553.48
2018-04-22T15:14:33.993Z,97552.48
2018-04-22T15:17:03.716Z,97555.48
2018-04-22T15:19:33.451Z,97553.63
2018-04-22T15:22:02.999Z,97549.06
2018-04-22T15:24:33.495Z,97555.99
2018-04-22T15:27:03.101Z,97556.33
2018-04-22T15:29:32.902Z,97548.20
2018-04-22T15:32:02.950Z,97552.33
2018-04-22T15:34:33.013Z,97553.37
2018-04-22T15:37:02.610Z,97551.36
2018-04-22T15:39:32.365Z,97554.73
2018-04-22T15:42:02.201Z,97551.05
2018-04-22T15:44:32.083Z,97553.80
2018-04-22T15:47:03.551Z,97550.06
2018-04-22T15:49:33.152Z,97553.33
2018-04-22T15:52:02.781Z,97548.86
2018-04-22T15:54:33.512Z,97549.96
2018-04-22T15:57:03.133Z,97549.09
2018-04-22T15:59:33.004Z,97553.80
2018-04-22T16:02:03.909Z,97554.67
2018-04-22T16:04:33.554Z,97555.50
2018-04-22T16:07:03.638Z,97556.97
2018-04-22T16:09:33.966Z,97558.59
2018-04-22T16:12:03.590Z,97559.33
2018-04-22T16:14:33.657Z,97564.08
2018-04-22T16:17:04.237Z,97558.83
2018-04-22T16:19:34.350Z,97556.08
2018-04-22T16:22:04.020Z,97554.31
2018-04-22T16:24:33.838Z,97550.83
2018-04-22T16:27:04.641Z,97551.81
2018-04-22T16:29:34.721Z,97556.73
2018-04-22T16:32:05.394Z,97554.13
2018-04-22T16:34:36.024Z,97548.16
2018-04-22T16:37:05.741Z,97549.88
2018-04-22T16:39:36.012Z,97551.73
2018-04-22T16:42:06.173Z,97556.34
2018-04-22T16:44:36.021Z,97557.03
2018-04-22T16:47:07.599Z,97559.66
2018-04-22T16:49:38.014Z,97551.08
2018-04-22T16:52:08.080Z,97559.78
2018-04-22T16:54:38.900Z,97559.14
2018-04-22T16:57:08.800Z,97553.58
2018-04-22T16:59:38.456Z,97556.91
2018-04-22T17:02:10.918Z,97549.55
2018-04-22T17:04:40.652Z,97554.31
2018-04-22T17:07:10.446Z,97558.70
2018-04-22T17:09:40.072Z,97564.24
2018-04-22T17:12:09.893Z,97565.15
2018-04-22T17:21:20.945Z,97573.02
2018-04-22T17:24:30.514Z,97576.48
2018-04-22T17:27:05.617Z,97573.06
2018-04-22T17:29:35.644Z,97575.27
2018-04-22T17:32:06.774Z,97583.38
2018-04-22T17:34:36.900Z,97584.39
2018-04-22T17:37:07.434Z,97587.53
2018-04-22T17:39:37.250Z,97589.89
2018-04-22T17:42:31.520Z,97591.67
2018-04-22T17:47:55.846Z,97592.80
2018-04-22T17:50:27.072Z,97596.83
2018-04-22T17:52:57.356Z,97599.25
2018-04-22T17:55:27.369Z,97605.45
2018-04-22T17:57:58.987Z,97604.39
2018-04-22T18:00:42.034Z,97610.13
2018-04-22T18:03:19.579Z,97607.27
2018-04-22T18:05:50.573Z,97615.45
2018-04-22T18:08:20.689Z,97619.66
2018-04-22T18:10:51.795Z,97625.78
2018-04-22T18:13:22.711Z,97632.64
2018-04-22T18:15:54.225Z,97641.47
2018-04-22T18:18:24.211Z,97643.36
2018-04-22T18:20:55.954Z,97651.19
2018-04-22T18:23:26.392Z,97655.44
2018-04-22T18:25:56.830Z,97658.14
2018-04-22T18:28:27.166Z,97656.92
2018-04-22T18:30:57.664Z,97660.55
2018-04-22T18:33:27.769Z,97665.55
2018-04-22T18:35:57.858Z,97663.58
2018-04-22T18:38:28.241Z,97662.86
2018-04-22T18:40:58.280Z,97656.31
2018-04-22T18:43:29.232Z,97662.85
2018-04-22T18:45:59.625Z,97670.36
2018-04-22T18:48:29.566Z,97664.81
2018-04-22T18:50:59.867Z,97668.28
2018-04-22T18:53:29.983Z,97669.54
2018-04-22T18:56:00.246Z,97670.75
2018-04-22T18:58:31.361Z,97672.13
2018-04-22T19:01:02.494Z,97684.18
2018-04-22T19:03:32.637Z,97683.30
2018-04-22T19:06:04.550Z,97686.69
2018-04-22T19:08:36.681Z,97690.98
2018-04-22T19:11:07.004Z,97687.17
2018-04-22T19:13:37.044Z,97693.92
2018-04-22T19:18:45.357Z,97692.42
2018-04-22T19:21:17.800Z,97704.25
2018-04-22T19:23:49.053Z,97701.34
2018-04-22T19:26:20.608Z,97709.53
2018-04-22T19:28:52.133Z,97709.87
2018-04-22T19:31:22.988Z,97710.12
2018-04-22T19:33:52.947Z,97717.58
2018-04-22T19:36:33.345Z,97720.42
2018-04-22T19:39:06.750Z,97719.11
2018-04-22T19:41:36.609Z,97719.83
2018-04-22T19:44:07.315Z,97727.63
2018-04-22T19:46:37.642Z,97728.98
2018-04-22T19:49:07.748Z,97729.80
2018-04-22T19:51:38.985Z,97736.00
2018-04-22T19:54:08.996Z,97732.88
2018-04-22T19:56:38.907Z,97727.62
2018-04-22T19:59:08.792Z,97734.27
2018-04-22T20:01:39.567Z,97734.27
2018-04-22T20:04:09.304Z,97734.80
2018-04-22T20:06:39.184Z,97734.48
2018-04-22T20:09:09.344Z,97738.75
2018-04-22T20:11:39.739Z,97734.47
2018-04-22T20:14:09.529Z,97728.42
2018-04-22T20:16:40.088Z,97738.05
2018-04-22T20:19:09.830Z,97740.59
2018-04-22T20:21:39.445Z,97738.25
2018-04-22T20:24:08.978Z,97747.26
2018-04-22T20:29:13.486Z,97753.91
2018-04-22T20:31:43.252Z,97752.87
2018-04-22T20:34:14.050Z,97752.39
2018-04-22T20:36:43.856Z,97753.55
2018-04-22T20:39:13.464Z,97755.84
2018-04-22T20:41:42.971Z,97770.03
2018-04-22T20:44:12.826Z,97770.37
2018-04-22T20:46:43.676Z,97764.03
2018-04-22T20:49:13.479Z,97762.59
2018-04-22T20:51:43.161Z,97766.09
2018-04-22T20:54:12.775Z,97772.03
2018-04-22T20:56:42.501Z,97769.02
2018-04-22T20:59:12.931Z,97770.93
2018-04-22T21:01:42.641Z,97774.26
2018-04-22T21:06:48.801Z,97778.16
2018-04-22T21:09:19.449Z,97779.37
2018-04-22T21:11:49.095Z,97776.98
2018-04-22T21:14:19.898Z,97783.80
2018-04-22T21:16:49.457Z,97787.69
2018-04-22T21:19:19.871Z,97781.81
2018-04-22T21:21:49.508Z,97786.22
2018-04-22T21:24:23.140Z,97787.78
2018-04-22T21:26:57.859Z,97783.91
2018-04-22T21:29:27.587Z,97785.22
2018-04-22T21:31:58.276Z,97787.77
2018-04-22T21:34:27.981Z,97782.94
2018-04-22T21:36:58.970Z,97787.74
2018-04-22T21:39:30.081Z,97790.44
2018-04-22T21:42:00.871Z,97791.22
2018-04-22T21:44:30.632Z,97796.55
2018-04-22T21:47:01.064Z,97798.20
2018-04-22T21:49:30.629Z,97797.66
2018-04-22T21:52:00.226Z,97795.59
2018-04-22T21:54:29.920Z,97791.89
2018-04-22T21:56:59.435Z,97795.98
2018-04-22T21:59:28.965Z,97799.89
2018-04-22T22:01:59.255Z,97802.44
2018-04-22T22:04:29.528Z,97807.27
2018-04-22T22:07:00.156Z,97801.15
2018-04-22T22:09:31.150Z,97808.89
2018-04-22T22:12:01.571Z,97807.28
2018-04-22T22:14:31.467Z,97807.53
2018-04-22T22:17:01.718Z,97803.75
2018-04-22T22:22:08.632Z,97809.48
2018-04-22T22:24:40.175Z,97806.86
2018-04-22T22:27:10.593Z,97805.84
2018-04-22T22:29:41.138Z,97807.72
2018-04-22T22:32:11.758Z,97807.23
2018-04-22T22:34:41.962Z,97802.61
2018-04-22T22:37:12.725Z,97805.20
2018-04-22T22:39:44.076Z,97802.95
2018-04-22T22:42:15.945Z,97802.92
2018-04-22T22:44:46.522Z,97807.27
2018-04-22T22:47:16.651Z,97811.10
2018-04-22T22:49:46.905Z,97813.51
2018-04-22T22:52:16.819Z,97811.77
2018-04-22T22:54:47.568Z,97812.22
2018-04-22T22:57:18.560Z,97806.96
2018-04-22T22:59:48.819Z,97812.34
2018-04-22T23:02:19.044Z,97809.63
2018-04-22T23:04:49.091Z,97808.02
2018-04-22T23:07:19.237Z,97803.09
2018-04-22T23:09:51.352Z,97807.64
2018-04-22T23:12:21.601Z,97804.77
2018-04-22T23:14:52.199Z,97810.02
2018-04-22T23:17:23.885Z,97810.81
2018-04-22T23:19:55.067Z,97808.16
2018-04-22T23:22:25.061Z,97814.19
2018-04-22T23:24:56.481Z,97809.73
2018-04-22T23:27:27.147Z,97809.34
2018-04-22T23:29:57.523Z,97808.06
2018-04-22T23:32:27.593Z,97794.94
2018-04-22T23:35:01.321Z,97801.75
2018-04-22T23:37:31.869Z,97802.54
2018-04-22T23:40:02.207Z,97804.52
2018-04-22T23:42:33.431Z,97810.19
2018-04-22T23:45:04.018Z,97806.34
2018-04-22T23:47:34.553Z,97801.59
2018-04-22T23:50:04.820Z,97799.89
2018-04-22T23:52:34.770Z,97800.14
2018-04-22T23:55:04.522Z,97798.27
2018-04-22T23:57:34.287Z,97796.09
